Time;durP1;ratioP1;P1;durP2;ratioP2;P2;SDS_P1;SDS_P2;PMS_P1;PMS_P2;Temp;Humidity;BMP_temperature;BMP_pressure;BME280_temperature;BME280_humidity;BME280_pressure;Samples;Min_cycle;Max_cycle;Signal;HPM_P1;HPM_P2
2022/08/14 00:02:20;;;;;;;;;21.50;20.50;;;;;-128.00;-1.00;-1.00;106640;1267;1005016;-52
2022/08/14 00:04:47;;;;;;;;;20.75;19.75;;;;;-128.00;-1.00;-1.00;106507;1267;1002968;-46
2022/08/14 00:07:14;;;;;;;;;16.00;15.00;;;;;-128.00;-1.00;-1.00;106564;1267;1004851;-49
2022/08/14 00:09:42;;;;;;;;;18.67;18.00;;;;;-128.00;-1.00;-1.00;106564;1267;1002725;-48
2022/08/14 00:12:09;;;;;;;;;19.25;16.25;;;;;-128.00;-1.00;-1.00;106614;1266;1003661;-47
2022/08/14 00:14:36;;;;;;;;;20.00;18.33;;;;;-128.00;-1.00;-1.00;106656;1268;1003308;-49
2022/08/14 00:17:04;;;;;;;;;19.25;18.25;;;;;-128.00;-1.00;-1.00;106610;1267;1003148;-49
2022/08/14 00:19:31;;;;;;;;;20.33;18.67;;;;;-128.00;-1.00;-1.00;106567;1267;1003796;-48
2022/08/14 00:21:58;;;;;;;;;20.00;19.33;;;;;-128.00;-1.00;-1.00;106602;1266;1002957;-47
2022/08/14 00:24:25;;;;;;;;;18.00;18.00;;;;;-128.00;-1.00;-1.00;106576;1268;1002663;-47
2022/08/14 00:26:53;;;;;;;;;20.25;18.25;;;;;-128.00;-1.00;-1.00;106632;1268;1002759;-47
2022/08/14 00:29:20;;;;;;;;;19.75;19.75;;;;;-128.00;-1.00;-1.00;106616;1267;1002795;-47
2022/08/14 00:31:47;;;;;;;;;19.67;18.67;;;;;-128.00;-1.00;-1.00;106583;1268;1003042;-50
2022/08/14 00:34:15;;;;;;;;;19.25;18.25;;;;;-128.00;-1.00;-1.00;106585;1267;1002695;-48
2022/08/14 00:36:42;;;;;;;;;18.33;18.00;;;;;-128.00;-1.00;-1.00;106551;1268;1003687;-47
2022/08/14 00:39:09;;;;;;;;;17.75;17.75;;;;;-128.00;-1.00;-1.00;106584;1268;1001966;-47
2022/08/14 00:41:36;;;;;;;;;19.67;18.00;;;;;-128.00;-1.00;-1.00;106635;1267;1002625;-51
2022/08/14 00:44:03;;;;;;;;;19.75;16.25;;;;;-128.00;-1.00;-1.00;106450;1267;1002782;-50
2022/08/14 00:46:31;;;;;;;;;19.00;17.75;;;;;-128.00;-1.00;-1.00;106525;1267;1002937;-47
2022/08/14 00:48:59;;;;;;;;;23.75;21.00;;;;;-128.00;-1.00;-1.00;106555;1267;1006794;-44
2022/08/14 00:51:31;;;;;;;;;19.00;18.50;;;;;-128.00;-1.00;-1.00;106559;1268;1002947;-49
2022/08/14 00:53:59;;;;;;;;;18.67;17.67;;;;;-128.00;-1.00;-1.00;106589;1267;1006173;-49
2022/08/14 00:56:26;;;;;;;;;21.25;19.75;;;;;-128.00;-1.00;-1.00;106532;1267;1002975;-49
2022/08/14 00:58:58;;;;;;;;;23.50;23.50;;;;;-128.00;-1.00;-1.00;106535;1267;1002976;-49
2022/08/14 01:01:25;;;;;;;;;28.00;26.25;;;;;-128.00;-1.00;-1.00;106603;1267;1007232;-49
2022/08/14 01:03:53;;;;;;;;;24.50;21.25;;;;;-128.00;-1.00;-1.00;106579;1268;1002725;-48
2022/08/14 01:06:20;;;;;;;;;23.00;21.50;;;;;-128.00;-1.00;-1.00;106583;1267;1002989;-46
2022/08/14 01:08:49;;;;;;;;;20.00;19.00;;;;;-128.00;-1.00;-1.00;106658;1267;1003652;-48
2022/08/14 01:11:16;;;;;;;;;20.00;19.25;;;;;-128.00;-1.00;-1.00;106553;1268;1007162;-48
2022/08/14 01:13:44;;;;;;;;;27.50;24.75;;;;;-128.00;-1.00;-1.00;106588;1268;1002709;-47
2022/08/14 01:16:11;;;;;;;;;29.00;25.50;;;;;-128.00;-1.00;-1.00;106575;1268;1002965;-48
2022/08/14 01:21:23;;;;;;;;;19.00;19.00;;;;;-128.00;-1.00;-1.00;105511;1273;1006152;-49
2022/08/14 01:23:50;;;;;;;;;19.67;18.67;;;;;-128.00;-1.00;-1.00;105549;1273;1002896;-47
2022/08/14 01:26:19;;;;;;;;;20.00;19.00;;;;;-128.00;-1.00;-1.00;105600;1273;1003286;-48
2022/08/14 01:28:47;;;;;;;;;21.25;19.00;;;;;-128.00;-1.00;-1.00;105581;1273;1007219;-48
2022/08/14 01:31:14;;;;;;;;;19.00;19.00;;;;;-128.00;-1.00;-1.00;105556;1273;1002694;-47
2022/08/14 01:33:43;;;;;;;;;18.67;18.00;;;;;-128.00;-1.00;-1.00;105569;1273;1002442;-48
2022/08/14 01:36:10;;;;;;;;;24.00;22.50;;;;;-128.00;-1.00;-1.00;105532;1273;1007048;-48
2022/08/14 01:38:37;;;;;;;;;45.75;39.00;;;;;-128.00;-1.00;-1.00;105600;1273;1002971;-50
2022/08/14 01:41:05;;;;;;;;;33.50;30.00;;;;;-128.00;-1.00;-1.00;105515;1273;1003353;-49
2022/08/14 01:43:37;;;;;;;;;24.75;23.75;;;;;-128.00;-1.00;-1.00;105557;1273;1003000;-48
2022/08/14 01:46:10;;;;;;;;;21.33;20.67;;;;;-128.00;-1.00;-1.00;105578;1274;1007328;-48
2022/08/14 01:48:37;;;;;;;;;22.75;20.50;;;;;-128.00;-1.00;-1.00;105525;1273;1006422;-47
2022/08/14 01:51:04;;;;;;;;;21.33;20.00;;;;;-128.00;-1.00;-1.00;105579;1273;1002829;-51
2022/08/14 01:53:32;;;;;;;;;22.00;22.00;;;;;-128.00;-1.00;-1.00;105605;1273;1002721;-47
2022/08/14 01:56:00;;;;;;;;;32.33;30.00;;;;;-128.00;-1.00;-1.00;105531;1273;1006006;-49
2022/08/14 01:58:28;;;;;;;;;36.00;30.00;;;;;-128.00;-1.00;-1.00;105789;1267;1004650;-50
2022/08/14 02:00:55;;;;;;;;;28.75;25.75;;;;;-128.00;-1.00;-1.00;106573;1267;1002754;-49
2022/08/14 02:03:23;;;;;;;;;26.75;24.00;;;;;-128.00;-1.00;-1.00;106348;1268;1003106;-48
2022/08/14 02:05:50;;;;;;;;;22.00;19.75;;;;;-128.00;-1.00;-1.00;106656;1267;1002235;-48
2022/08/14 02:08:18;;;;;;;;;22.25;20.75;;;;;-128.00;-1.00;-1.00;106573;1267;1004638;-48
2022/08/14 02:11:15;;;;;;;;;22.75;20.75;;;;;-128.00;-1.00;-1.00;106614;1266;1002624;-50
2022/08/14 02:13:32;;;;;;;;;20.50;20.00;;;;;-128.00;-1.00;-1.00;106543;1267;1006770;-48
2022/08/14 02:16:00;;;;;;;;;18.75;18.50;;;;;-128.00;-1.00;-1.00;106515;1268;1003316;-46
2022/08/14 02:18:29;;;;;;;;;22.50;21.50;;;;;-128.00;-1.00;-1.00;106400;1268;1003113;-47
2022/08/14 02:20:57;;;;;;;;;22.25;21.00;;;;;-128.00;-1.00;-1.00;106579;1267;1007146;-51
2022/08/14 02:23:24;;;;;;;;;17.75;17.75;;;;;-128.00;-1.00;-1.00;106532;1268;1007599;-50
2022/08/14 02:25:52;;;;;;;;;20.33;18.67;;;;;-128.00;-1.00;-1.00;106601;1268;1002457;-44
2022/08/14 02:28:19;;;;;;;;;22.75;21.25;;;;;-128.00;-1.00;-1.00;106566;1267;1002734;-49
2022/08/14 02:30:46;;;;;;;;;20.50;20.25;;;;;-128.00;-1.00;-1.00;106649;1267;1004902;-49
2022/08/14 02:33:13;;;;;;;;;21.00;20.75;;;;;-128.00;-1.00;-1.00;106579;1268;1002774;-48
2022/08/14 02:35:42;;;;;;;;;21.00;20.25;;;;;-128.00;-1.00;-1.00;106620;1268;1002994;-49
2022/08/14 02:38:09;;;;;;;;;20.50;19.50;;;;;-128.00;-1.00;-1.00;106514;1267;1007619;-49
2022/08/14 02:40:38;;;;;;;;;22.00;21.33;;;;;-128.00;-1.00;-1.00;106502;1268;1002512;-48
2022/08/14 02:43:05;;;;;;;;;23.00;21.50;;;;;-128.00;-1.00;-1.00;106540;1267;1006862;-48
2022/08/14 02:45:33;;;;;;;;;20.00;18.00;;;;;-128.00;-1.00;-1.00;106566;1267;1002515;-49
2022/08/14 02:48:00;;;;;;;;;21.50;21.00;;;;;-128.00;-1.00;-1.00;106585;1267;1002782;-47
2022/08/14 02:50:27;;;;;;;;;18.00;18.00;;;;;-128.00;-1.00;-1.00;106582;1268;1002700;-49
2022/08/14 02:52:55;;;;;;;;;21.67;20.67;;;;;-128.00;-1.00;-1.00;106583;1267;1002440;-47
2022/08/14 02:55:22;;;;;;;;;21.25;21.25;;;;;-128.00;-1.00;-1.00;106534;1267;1002698;-47
2022/08/14 02:57:50;;;;;;;;;21.50;21.00;;;;;-128.00;-1.00;-1.00;106489;1267;1002578;-47
2022/08/14 03:00:18;;;;;;;;;21.00;20.75;;;;;-128.00;-1.00;-1.00;106572;1267;1007309;-48
2022/08/14 03:02:45;;;;;;;;;22.50;22.00;;;;;-128.00;-1.00;-1.00;106620;1267;1003164;-50
2022/08/14 03:05:12;;;;;;;;;21.25;20.50;;;;;-128.00;-1.00;-1.00;106573;1268;1002624;-48
2022/08/14 03:07:39;;;;;;;;;22.50;22.00;;;;;-128.00;-1.00;-1.00;106588;1267;1002498;-48
2022/08/14 03:10:07;;;;;;;;;21.00;21.00;;;;;-128.00;-1.00;-1.00;106612;1268;1002819;-52
2022/08/14 03:12:34;;;;;;;;;32.00;30.75;;;;;-128.00;-1.00;-1.00;106555;1267;1003888;-47
2022/08/14 03:15:12;;;;;;;;;29.00;25.00;;;;;-128.00;-1.00;-1.00;106641;1267;1002561;-48
2022/08/14 03:17:41;;;;;;;;;26.00;25.00;;;;;-128.00;-1.00;-1.00;106661;1268;1006573;-49
2022/08/14 03:20:09;;;;;;;;;22.50;22.25;;;;;-128.00;-1.00;-1.00;106521;1267;1007003;-50
2022/08/14 03:22:36;;;;;;;;;22.25;21.00;;;;;-128.00;-1.00;-1.00;106548;1267;1002928;-48
2022/08/14 03:25:04;;;;;;;;;21.75;20.75;;;;;-128.00;-1.00;-1.00;106580;1267;1002814;-47
2022/08/14 03:27:31;;;;;;;;;21.25;19.75;;;;;-128.00;-1.00;-1.00;106596;1267;1002848;-47
2022/08/14 03:29:58;;;;;;;;;22.00;19.67;;;;;-128.00;-1.00;-1.00;106643;1268;1003080;-48
2022/08/14 03:32:25;;;;;;;;;18.33;18.33;;;;;-128.00;-1.00;-1.00;106629;1268;1002627;-49
2022/08/14 03:34:53;;;;;;;;;22.00;21.00;;;;;-128.00;-1.00;-1.00;106554;1268;1002735;-50
2022/08/14 03:37:20;;;;;;;;;18.00;17.33;;;;;-128.00;-1.00;-1.00;106608;1268;1003000;-49
2022/08/14 03:39:48;;;;;;;;;21.67;20.67;;;;;-128.00;-1.00;-1.00;106581;1268;1002528;-47
2022/08/14 03:42:15;;;;;;;;;22.50;22.00;;;;;-128.00;-1.00;-1.00;106617;1268;1002647;-46
2022/08/14 03:44:44;;;;;;;;;21.75;20.50;;;;;-128.00;-1.00;-1.00;106633;1267;1003433;-48
2022/08/14 03:47:12;;;;;;;;;19.25;19.00;;;;;-128.00;-1.00;-1.00;106561;1267;1006130;-48
2022/08/14 03:49:39;;;;;;;;;25.25;23.75;;;;;-128.00;-1.00;-1.00;106620;1268;1002375;-48
2022/08/14 03:52:07;;;;;;;;;27.25;24.00;;;;;-128.00;-1.00;-1.00;106525;1267;1002666;-48
2022/08/14 03:54:34;;;;;;;;;24.00;24.00;;;;;-128.00;-1.00;-1.00;106567;1267;1002684;-48
2022/08/14 03:57:01;;;;;;;;;24.00;23.25;;;;;-128.00;-1.00;-1.00;106629;1267;1003038;-48
2022/08/14 03:59:29;;;;;;;;;22.75;21.25;;;;;-128.00;-1.00;-1.00;106622;1267;1004226;-48
2022/08/14 04:01:56;;;;;;;;;28.50;25.50;;;;;-128.00;-1.00;-1.00;106574;1267;1002618;-47
2022/08/14 04:04:24;;;;;;;;;28.50;26.75;;;;;-128.00;-1.00;-1.00;106578;1267;1003612;-48
2022/08/14 04:06:51;;;;;;;;;27.75;24.00;;;;;-128.00;-1.00;-1.00;106607;1267;1005135;-49
2022/08/14 04:09:18;;;;;;;;;21.50;21.50;;;;;-128.00;-1.00;-1.00;106614;1267;1002655;-49
2022/08/14 04:11:45;;;;;;;;;24.00;23.00;;;;;-128.00;-1.00;-1.00;106625;1267;1003096;-48
2022/08/14 04:14:14;;;;;;;;;22.67;21.33;;;;;-128.00;-1.00;-1.00;106527;1267;1003271;-48
2022/08/14 04:16:46;;;;;;;;;23.75;21.50;;;;;-128.00;-1.00;-1.00;106621;1268;1005221;-49
2022/08/14 04:19:18;;;;;;;;;18.25;18.25;;;;;-128.00;-1.00;-1.00;106564;1267;1006560;-49
2022/08/14 04:21:46;;;;;;;;;19.00;19.00;;;;;-128.00;-1.00;-1.00;106535;1267;1007557;-53
2022/08/14 04:24:13;;;;;;;;;24.67;22.67;;;;;-128.00;-1.00;-1.00;106581;1267;1002750;-50
2022/08/14 04:26:43;;;;;;;;;23.00;21.00;;;;;-128.00;-1.00;-1.00;106586;1267;1003148;-49
2022/08/14 04:29:11;;;;;;;;;22.00;21.75;;;;;-128.00;-1.00;-1.00;106534;1268;1007501;-47
2022/08/14 04:31:39;;;;;;;;;20.75;19.00;;;;;-128.00;-1.00;-1.00;106533;1268;1005903;-49
2022/08/14 04:34:06;;;;;;;;;22.00;21.75;;;;;-128.00;-1.00;-1.00;106537;1267;1002433;-48
2022/08/14 04:43:34;;;;;;;;;19.50;18.75;;;;;-128.00;-1.00;-1.00;106508;1268;1003313;-50
2022/08/14 04:44:51;;;;;;;;;27.33;26.33;;;;;-128.00;-1.00;-1.00;106654;1268;1007389;-50
2022/08/14 04:50:03;;;;;;;;;25.75;23.00;;;;;-128.00;-1.00;-1.00;106485;1267;1005867;-48
2022/08/14 04:52:30;;;;;;;;;24.75;23.50;;;;;-128.00;-1.00;-1.00;106391;1267;1002813;-46
2022/08/14 04:54:58;;;;;;;;;24.00;21.25;;;;;-128.00;-1.00;-1.00;106488;1267;1002567;-47
2022/08/14 04:57:25;;;;;;;;;21.33;19.67;;;;;-128.00;-1.00;-1.00;106486;1267;1003257;-49
2022/08/14 04:59:53;;;;;;;;;18.75;18.75;;;;;-128.00;-1.00;-1.00;106623;1267;1002587;-47
2022/08/14 05:02:46;;;;;;;;;21.00;21.00;;;;;23.26;58.02;100719.41;107655;1300;19113;-49
2022/08/14 05:05:14;;;;;;;;;26.00;24.00;;;;;23.44;57.63;100717.13;109043;1274;21992;-49
2022/08/14 05:07:41;;;;;;;;;20.33;17.67;;;;;23.55;57.50;100718.50;109081;1274;18904;-47
2022/08/14 05:10:08;;;;;;;;;20.00;20.00;;;;;23.45;57.62;100720.92;109634;1271;20765;-48
2022/08/14 05:12:38;;;;;;;;;20.67;19.00;;;;;23.51;57.59;100719.27;109552;1271;18510;-47
2022/08/14 05:15:06;;;;;;;;;19.67;19.00;;;;;23.61;57.71;100717.14;109605;1271;18955;-50
2022/08/14 05:17:33;;;;;;;;;22.67;22.67;;;;;23.51;57.40;100716.07;109546;1268;830917;-47
2022/08/14 05:20:01;;;;;;;;;23.33;22.33;;;;;23.35;57.90;100714.30;110132;1268;19580;-49
2022/08/14 05:22:29;;;;;;;;;29.67;27.67;;;;;23.55;57.72;100715.34;110178;1264;20990;-49
2022/08/14 05:24:56;;;;;;;;;24.50;22.50;;;;;23.58;57.44;100715.94;110216;1264;19508;-47
2022/08/14 05:27:24;;;;;;;;;27.00;22.00;;;;;23.48;57.47;100715.58;110064;1264;19624;-47
2022/08/14 05:29:51;;;;;;;;;22.67;22.00;;;;;23.50;57.34;100714.53;110313;1265;18754;-47
2022/08/14 05:32:19;;;;;;;;;21.33;21.00;;;;;23.43;57.56;100712.73;110262;1264;18334;-49
2022/08/14 05:34:46;;;;;;;;;23.00;22.00;;;;;23.24;58.04;100706.11;110241;1265;18686;-50
2022/08/14 05:37:14;;;;;;;;;23.33;23.00;;;;;23.47;57.82;100702.42;110261;1264;18875;-48
2022/08/14 05:39:41;;;;;;;;;24.00;22.50;;;;;23.63;57.48;100702.10;110284;1264;22216;-47
2022/08/14 05:42:08;;;;;;;;;21.33;20.00;;;;;23.55;57.59;100697.09;110266;1264;19925;-49
2022/08/14 05:44:35;;;;;;;;;22.67;21.67;;;;;23.41;57.94;100701.70;110270;1264;18674;-49
2022/08/14 05:47:03;;;;;;;;;25.00;22.00;;;;;23.51;57.84;100696.02;110282;1264;18890;-47
2022/08/14 05:49:30;;;;;;;;;22.00;22.00;;;;;23.49;57.81;100689.70;110271;1263;19091;-48
2022/08/14 05:51:58;;;;;;;;;21.33;20.00;;;;;23.37;58.25;100691.23;110288;1265;19134;-47
2022/08/14 05:54:25;;;;;;;;;22.00;22.00;;;;;23.33;58.38;100690.84;110295;1264;21029;-48
2022/08/14 05:56:53;;;;;;;;;33.00;32.00;;;;;23.41;58.03;100696.35;110295;1264;18587;-47
2022/08/14 05:59:20;;;;;;;;;32.67;31.00;;;;;23.56;57.78;100691.61;110252;1264;21252;-48
2022/08/14 06:01:47;;;;;;;;;29.67;27.33;;;;;23.68;57.61;100693.73;110227;1264;18377;-48
2022/08/14 06:04:14;;;;;;;;;36.00;33.00;;;;;23.64;57.63;100691.12;110192;1264;18812;-48
2022/08/14 06:06:42;;;;;;;;;36.33;32.33;;;;;23.74;57.25;100689.78;110079;1265;18759;-47
2022/08/14 06:09:09;;;;;;;;;34.67;32.00;;;;;23.86;57.07;100691.14;110043;1264;19037;-50
2022/08/14 06:11:36;;;;;;;;;28.50;27.00;;;;;24.08;56.76;100696.69;110281;1264;18616;-50
2022/08/14 06:14:03;;;;;;;;;29.67;29.00;;;;;24.24;56.23;100693.85;110266;1265;22021;-47
2022/08/14 06:16:31;;;;;;;;;26.33;24.00;;;;;24.41;55.72;100692.59;110180;1264;18377;-47
2022/08/14 06:18:58;;;;;;;;;25.67;24.00;;;;;24.32;55.82;100686.32;110295;1265;21546;-49
2022/08/14 06:21:26;;;;;;;;;28.00;26.67;;;;;24.33;55.76;100689.42;110466;1262;18878;-49
2022/08/14 06:23:53;;;;;;;;;39.00;35.50;;;;;24.45;55.76;100693.92;110515;1261;20555;-49
2022/08/14 06:26:20;;;;;;;;;31.00;30.33;;;;;24.48;55.58;100692.23;110478;1261;20187;-48
2022/08/14 06:28:48;;;;;;;;;30.33;28.33;;;;;24.59;55.39;100693.88;110459;1261;19033;-48
2022/08/14 06:31:16;;;;;;;;;25.67;24.00;;;;;24.70;55.20;100690.17;110428;1262;18455;-49
2022/08/14 06:33:44;;;;;;;;;27.67;26.00;;;;;24.56;55.35;100683.48;110466;1261;18654;-49
2022/08/14 06:36:11;;;;;;;;;29.67;25.67;;;;;24.51;55.55;100683.38;110444;1260;19000;-49
2022/08/14 06:38:38;;;;;;;;;26.50;25.00;;;;;24.51;55.69;100684.84;110490;1262;18575;-49
2022/08/14 06:41:06;;;;;;;;;26.67;26.00;;;;;24.61;55.46;100682.83;110470;1262;18626;-49
2022/08/14 06:43:33;;;;;;;;;23.67;22.00;;;;;24.71;55.40;100693.24;110451;1262;18859;-50
2022/08/14 06:46:01;;;;;;;;;25.00;24.00;;;;;24.67;55.36;100682.73;110469;1261;18336;-48
2022/08/14 06:48:28;;;;;;;;;27.67;24.33;;;;;24.86;55.01;100674.58;110477;1262;18567;-48
2022/08/14 06:50:56;;;;;;;;;25.67;25.00;;;;;25.04;54.80;100676.34;110504;1261;20755;-49
2022/08/14 06:53:23;;;;;;;;;26.00;24.67;;;;;25.10;54.70;100674.76;110260;1264;18428;-49
2022/08/14 06:55:50;;;;;;;;;27.67;26.00;;;;;25.17;54.45;100675.96;110442;1262;21512;-47
2022/08/14 06:58:17;;;;;;;;;25.00;24.00;;;;;25.18;54.37;100673.56;110470;1261;19368;-49
2022/08/14 07:05:44;;;;;;;;;27.00;25.00;;;;;25.24;54.48;100672.52;110455;1261;18195;-47
2022/08/14 07:06:17;;;;;;;;;26.00;25.00;;;;;25.53;54.13;100655.95;110474;1261;18843;-48
2022/08/14 07:08:45;;;;;;;;;29.00;27.00;;;;;25.59;54.03;100650.16;110490;1262;18261;-49
2022/08/14 07:11:12;;;;;;;;;28.33;25.67;;;;;25.52;54.26;100647.85;110456;1261;18582;-52
2022/08/14 07:13:39;;;;;;;;;27.00;25.67;;;;;25.71;54.05;100642.48;110470;1261;21913;-49
2022/08/14 07:16:06;;;;;;;;;24.00;24.00;;;;;25.64;54.04;100639.75;110452;1262;21592;-48
2022/08/14 07:18:34;;;;;;;;;23.00;22.67;;;;;25.53;54.33;100638.70;110411;1261;18585;-48
2022/08/14 07:21:01;;;;;;;;;25.33;24.33;;;;;25.66;54.38;100641.27;110536;1261;18774;-51
2022/08/14 07:23:28;;;;;;;;;25.50;25.50;;;;;25.80;54.25;100642.17;110438;1262;21983;-52
2022/08/14 07:25:55;;;;;;;;;26.50;24.00;;;;;25.92;53.84;100637.89;110419;1262;18567;-51
2022/08/14 07:28:23;;;;;;;;;25.00;24.00;;;;;25.90;53.87;100638.45;110470;1261;19881;-50
2022/08/14 07:30:51;;;;;;;;;24.67;23.67;;;;;25.96;53.97;100636.54;110461;1262;22840;-48
2022/08/14 07:33:18;;;;;;;;;22.50;21.50;;;;;26.05;53.77;100638.09;110469;1262;22116;-48
2022/08/14 07:35:45;;;;;;;;;23.00;21.33;;;;;26.13;53.74;100637.55;110394;1261;19330;-53
2022/08/14 07:38:13;;;;;;;;;23.33;21.00;;;;;26.31;53.43;100641.68;110419;1261;18352;-51
2022/08/14 07:40:40;;;;;;;;;23.00;22.50;;;;;26.33;53.46;100641.55;110469;1262;21594;-50
2022/08/14 07:43:08;;;;;;;;;24.67;24.33;;;;;26.25;53.60;100638.79;110459;1261;20383;-50
2022/08/14 07:45:35;;;;;;;;;24.00;22.67;;;;;26.37;53.23;100637.79;110489;1262;18271;-48
2022/08/14 07:48:03;;;;;;;;;23.00;22.67;;;;;26.36;53.02;100634.23;110491;1261;18533;-52
2022/08/14 07:50:31;;;;;;;;;23.33;22.67;;;;;26.35;53.03;100629.63;110379;1261;19192;-49
2022/08/14 07:52:58;;;;;;;;;25.33;22.00;;;;;26.19;52.96;100628.02;110474;1261;18267;-49
2022/08/14 07:55:25;;;;;;;;;24.00;22.00;;;;;26.12;53.22;100622.13;110444;1261;18557;-50
2022/08/14 07:57:53;;;;;;;;;19.50;18.50;;;;;26.18;52.90;100623.13;110427;1261;18768;-48
2022/08/14 08:00:21;;;;;;;;;24.00;22.67;;;;;26.23;52.34;100619.83;110470;1262;18200;-48
2022/08/14 08:02:48;;;;;;;;;22.00;21.33;;;;;26.26;52.10;100616.59;110332;1264;18701;-49
2022/08/14 08:05:16;;;;;;;;;23.50;22.50;;;;;26.39;52.01;100612.63;110263;1265;20234;-48
2022/08/14 08:07:43;;;;;;;;;23.50;23.00;;;;;26.34;51.80;100615.47;110285;1264;18258;-51
2022/08/14 08:12:51;;;;;;;;;23.00;22.00;;;;;26.45;51.58;100606.77;110281;1264;18678;-49
2022/08/14 08:15:19;;;;;;;;;21.33;19.33;;;;;26.39;51.23;100609.38;110281;1265;18373;-49
2022/08/14 08:17:46;;;;;;;;;23.50;22.00;;;;;26.20;51.61;100605.28;110326;1264;18660;-50
2022/08/14 08:20:14;;;;;;;;;20.67;19.67;;;;;26.11;51.66;100600.23;110282;1265;18812;-48
2022/08/14 08:22:42;;;;;;;;;21.00;21.00;;;;;26.01;51.95;100599.55;110324;1265;18303;-49
2022/08/14 08:25:09;;;;;;;;;22.00;21.33;;;;;26.17;51.69;100605.13;110288;1265;22635;-50
2022/08/14 08:27:36;;;;;;;;;22.00;20.67;;;;;26.14;51.78;100603.70;110301;1264;20577;-44
2022/08/14 08:30:03;;;;;;;;;21.00;19.00;;;;;26.16;51.79;100604.15;110350;1264;18221;-50
2022/08/14 08:32:31;;;;;;;;;19.67;18.67;;;;;26.17;51.65;100603.05;110227;1264;18659;-48
2022/08/14 08:34:58;;;;;;;;;20.33;19.00;;;;;26.11;51.86;100602.65;110306;1264;18883;-48
2022/08/14 08:37:25;;;;;;;;;21.00;21.00;;;;;26.27;51.33;100601.08;110229;1265;19211;-51
2022/08/14 08:39:52;;;;;;;;;21.00;20.67;;;;;26.19;51.34;100599.20;110281;1264;21345;-49
2022/08/14 08:42:20;;;;;;;;;23.67;23.00;;;;;26.14;51.53;100599.52;110318;1264;21487;-48
2022/08/14 08:44:47;;;;;;;;;21.33;19.67;;;;;26.26;51.41;100596.39;110191;1265;18302;-49
2022/08/14 08:47:14;;;;;;;;;25.00;22.00;;;;;26.29;51.37;100589.79;110254;1265;18611;-46
2022/08/14 08:49:42;;;;;;;;;20.00;19.00;;;;;26.40;51.28;100587.43;110250;1265;18786;-49
2022/08/14 08:52:10;;;;;;;;;20.00;19.33;;;;;26.43;51.31;100585.78;110206;1264;21893;-49
2022/08/14 08:54:37;;;;;;;;;20.00;18.50;;;;;26.35;51.99;100590.27;110260;1264;18512;-46
2022/08/14 08:57:04;;;;;;;;;22.00;20.00;;;;;26.46;52.09;100590.70;110244;1265;18746;-50
2022/08/14 08:59:32;;;;;;;;;20.00;19.67;;;;;26.54;51.82;100590.29;110261;1264;18267;-54
2022/08/14 09:01:59;;;;;;;;;22.00;20.00;;;;;26.55;51.95;100594.19;110188;1264;18563;-49
2022/08/14 09:04:26;;;;;;;;;20.00;20.00;;;;;26.61;51.88;100591.58;110190;1264;21843;-46
2022/08/14 09:06:54;;;;;;;;;23.00;23.00;;;;;26.59;52.13;100591.46;110291;1264;18201;-47
2022/08/14 09:09:21;;;;;;;;;20.00;20.00;;;;;26.55;52.13;100584.04;110131;1265;18868;-53
2022/08/14 09:11:48;;;;;;;;;22.50;21.00;;;;;26.65;51.87;100578.95;110294;1265;22038;-50
2022/08/14 09:14:15;;;;;;;;;23.50;21.00;;;;;26.58;52.01;100569.98;110265;1264;20648;-49
2022/08/14 09:16:43;;;;;;;;;22.00;20.00;;;;;26.57;52.33;100569.95;110271;1264;18722;-49
2022/08/14 09:19:10;;;;;;;;;23.00;22.00;;;;;26.59;52.34;100559.56;110247;1264;18769;-47
2022/08/14 09:21:38;;;;;;;;;18.50;18.50;;;;;26.59;52.46;100558.08;110286;1265;18220;-49
2022/08/14 09:24:05;;;;;;;;;21.33;21.00;;;;;26.71;52.42;100552.68;110293;1264;18712;-48
2022/08/14 09:26:32;;;;;;;;;23.00;21.00;;;;;26.76;52.28;100554.77;110214;1264;18743;-49
2022/08/14 09:29:00;;;;;;;;;23.67;21.67;;;;;26.83;51.96;100552.02;110112;1265;18364;-47
2022/08/14 09:31:27;;;;;;;;;25.50;24.00;;;;;26.80;52.37;100549.24;110218;1264;19132;-47
2022/08/14 09:33:54;;;;;;;;;26.00;23.00;;;;;26.73;52.66;100547.44;110113;1264;18747;-56
2022/08/14 09:36:23;;;;;;;;;24.67;23.00;;;;;26.78;52.45;100540.13;110178;1265;18420;-46
2022/08/14 09:38:52;;;;;;;;;29.67;26.00;;;;;27.02;52.11;100538.05;110043;1266;18777;-47
2022/08/14 09:41:19;;;;;;;;;22.33;21.00;;;;;27.06;51.85;100537.02;110136;1265;18660;-53
2022/08/14 09:43:47;;;;;;;;;25.33;24.67;;;;;27.07;51.65;100542.81;110112;1264;18240;-48
2022/08/14 09:46:14;;;;;;;;;25.00;24.00;;;;;26.97;51.65;100538.50;110162;1264;18744;-49
2022/08/14 09:48:42;;;;;;;;;23.67;21.00;;;;;26.91;51.60;100538.59;110258;1264;18663;-50
2022/08/14 09:51:09;;;;;;;;;24.00;22.50;;;;;26.87;51.48;100528.71;110227;1265;19426;-49
2022/08/14 09:53:36;;;;;;;;;26.50;24.50;;;;;26.76;51.68;100533.55;110187;1264;18914;-50
2022/08/14 09:56:04;;;;;;;;;24.00;24.00;;;;;26.66;51.57;100535.29;110189;1264;21793;-54
2022/08/14 09:58:32;;;;;;;;;22.33;21.33;;;;;26.75;51.41;100531.64;110241;1265;18311;-48
2022/08/14 10:01:00;;;;;;;;;23.00;20.67;;;;;26.83;50.92;100524.85;110222;1264;18686;-49
2022/08/14 10:03:29;;;;;;;;;22.00;21.33;;;;;26.85;50.66;100522.27;110266;1264;18925;-49
2022/08/14 10:05:57;;;;;;;;;20.67;20.33;;;;;26.80;50.81;100519.63;110227;1265;18739;-49
2022/08/14 10:08:24;;;;;;;;;22.67;21.33;;;;;26.75;50.91;100514.27;110430;1264;19263;-52
2022/08/14 10:10:52;;;;;;;;;23.67;23.00;;;;;26.69;51.28;100512.19;110510;1264;14874;-47
2022/08/14 10:13:19;;;;;;;;;23.67;23.00;;;;;26.70;51.44;100508.88;110500;1264;13127;-49
2022/08/14 10:15:47;;;;;;;;;27.50;24.00;;;;;26.71;51.49;100509.50;110530;1264;14838;-48
2022/08/14 10:18:14;;;;;;;;;25.00;24.00;;;;;26.66;51.62;100504.89;110555;1265;14136;-50
2022/08/14 10:20:43;;;;;;;;;25.00;24.00;;;;;26.65;51.64;100507.40;110397;1265;13199;-48
2022/08/14 10:23:10;;;;;;;;;24.00;24.00;;;;;26.59;51.79;100508.40;110518;1264;14906;-50
2022/08/14 10:25:37;;;;;;;;;24.00;22.67;;;;;26.67;51.67;100511.34;110454;1264;15038;-48
2022/08/14 10:28:04;;;;;;;;;29.33;26.00;;;;;26.70;51.68;100505.70;110468;1264;13250;-50
2022/08/14 10:30:33;;;;;;;;;25.00;24.00;;;;;26.57;51.97;100502.32;110522;1264;13287;-48
2022/08/14 10:33:01;;;;;;;;;25.00;25.00;;;;;26.64;52.02;100498.80;110528;1264;13153;-49
2022/08/14 10:35:28;;;;;;;;;23.00;23.00;;;;;26.75;51.88;100493.22;110513;1264;14066;-48
2022/08/14 10:37:55;;;;;;;;;26.33;24.67;;;;;26.84;51.52;100499.80;110507;1264;13425;-49
2022/08/14 10:40:22;;;;;;;;;20.00;20.00;;;;;26.79;51.55;100495.06;110519;1264;13958;-49
2022/08/14 10:42:50;;;;;;;;;26.00;25.00;;;;;26.80;51.67;100497.48;110514;1264;14827;-49
2022/08/14 10:45:19;;;;;;;;;26.33;25.00;;;;;26.77;51.75;100499.45;110520;1264;14039;-49
2022/08/14 10:47:47;;;;;;;;;24.50;23.50;;;;;26.77;51.74;100495.80;110470;1265;13254;-49
2022/08/14 10:50:14;;;;;;;;;24.00;23.00;;;;;26.79;51.34;100496.80;110495;1264;14756;-49
2022/08/14 10:52:41;;;;;;;;;21.33;20.67;;;;;26.83;51.00;100496.47;110521;1265;13721;-49
2022/08/14 10:55:12;;;;;;;;;26.00;24.67;;;;;26.92;50.64;100490.44;110345;1265;14667;-50
2022/08/14 10:57:40;;;;;;;;;24.67;23.67;;;;;26.95;50.40;100487.02;110520;1264;14851;-45
2022/08/14 11:00:07;;;;;;;;;24.67;23.00;;;;;26.80;50.70;100486.52;110387;1265;13402;-48
2022/08/14 11:02:35;;;;;;;;;25.67;24.00;;;;;26.80;50.72;100484.40;110494;1265;15546;-49
2022/08/14 11:05:03;;;;;;;;;27.00;24.00;;;;;26.91;50.35;100482.31;110525;1264;14948;-48
2022/08/14 11:07:30;;;;;;;;;27.67;24.00;;;;;26.94;50.25;100483.73;110508;1264;14812;-48
2022/08/14 11:09:57;;;;;;;;;23.00;22.00;;;;;27.01;50.26;100483.50;110525;1265;14797;-49
2022/08/14 11:12:25;;;;;;;;;25.00;21.33;;;;;27.00;50.21;100486.56;110542;1264;14763;-49
2022/08/14 11:14:53;;;;;;;;;25.67;23.00;;;;;27.03;50.29;100485.95;110606;1264;13368;-48
2022/08/14 11:17:21;;;;;;;;;25.50;23.50;;;;;27.04;50.16;100480.52;110451;1264;14437;-48
2022/08/14 11:19:49;;;;;;;;;26.33;25.00;;;;;27.00;50.24;100475.40;110507;1264;15215;-46
2022/08/14 11:22:17;;;;;;;;;23.00;21.00;;;;;26.94;50.42;100472.18;110541;1264;15319;-49